createdAt,value
2018-07-14T00:00:56.409Z,4.00
2018-07-14T00:01:56.394Z,4.00
2018-07-14T00:02:56.378Z,4.00
2018-07-14T00:03:56.374Z,4.00
2018-07-14T00:04:56.353Z,4.00
2018-07-14T00:05:56.341Z,4.00
2018-07-14T00:06:56.324Z,4.00
2018-07-14T00:07:56.309Z,4.00
2018-07-14T00:08:56.307Z,4.00
2018-07-14T00:09:56.307Z,4.00
2018-07-14T00:10:56.276Z,4.00
2018-07-14T00:11:56.258Z,4.00
2018-07-14T00:12:56.239Z,4.00
2018-07-14T00:13:56.236Z,4.00
2018-07-14T00:14:56.220Z,4.00
2018-07-14T00:15:56.196Z,4.00
2018-07-14T00:16:56.183Z,4.00
2018-07-14T00:17:56.172Z,4.00
2018-07-14T00:18:56.164Z,4.00
2018-07-14T00:19:56.143Z,4.00
2018-07-14T00:20:56.128Z,4.00
2018-07-14T00:21:56.117Z,4.00
2018-07-14T00:22:56.100Z,4.00
2018-07-14T00:23:56.085Z,4.00
2018-07-14T00:24:56.071Z,4.00
2018-07-14T00:25:56.057Z,4.00
2018-07-14T00:26:56.048Z,4.00
2018-07-14T00:27:56.029Z,4.00
2018-07-14T00:28:56.014Z,4.00
2018-07-14T00:29:56.001Z,4.00
2018-07-14T00:30:55.987Z,4.00
2018-07-14T00:31:55.972Z,4.00
2018-07-14T00:32:55.958Z,4.00
2018-07-14T00:33:55.943Z,4.00
2018-07-14T00:34:55.930Z,4.00
2018-07-14T00:35:55.915Z,4.00
2018-07-14T00:36:55.904Z,4.00
2018-07-14T00:37:55.890Z,4.00
2018-07-14T00:38:55.876Z,4.00
2018-07-14T00:39:55.866Z,4.00
2018-07-14T00:40:55.850Z,4.00
2018-07-14T00:41:55.834Z,4.00
2018-07-14T00:42:55.822Z,4.00
2018-07-14T00:43:55.804Z,4.00
2018-07-14T00:44:55.789Z,4.00
2018-07-14T00:45:55.776Z,4.00
2018-07-14T00:46:55.761Z,4.00
2018-07-14T00:47:55.748Z,4.00
2018-07-14T00:48:55.736Z,4.00
2018-07-14T00:49:55.726Z,4.00
2018-07-14T00:50:55.704Z,4.00
2018-07-14T00:51:55.689Z,4.00
2018-07-14T00:52:55.675Z,4.00
2018-07-14T00:53:55.672Z,4.00
2018-07-14T00:54:55.648Z,4.00
2018-07-14T00:55:55.735Z,4.00
2018-07-14T00:56:55.620Z,4.00
2018-07-14T00:57:55.605Z,4.00
2018-07-14T00:58:55.592Z,4.00
2018-07-14T00:59:55.576Z,4.00
2018-07-14T01:00:55.615Z,4.00
2018-07-14T01:01:55.549Z,4.00
2018-07-14T01:02:55.539Z,4.00
2018-07-14T01:03:55.521Z,4.00
2018-07-14T01:04:55.506Z,4.00
2018-07-14T01:05:55.492Z,4.00
2018-07-14T01:06:55.482Z,4.00
2018-07-14T01:07:55.471Z,4.00
2018-07-14T01:08:55.449Z,4.00
2018-07-14T01:09:55.435Z,4.00
2018-07-14T01:10:55.421Z,4.00
2018-07-14T01:11:55.405Z,4.00
2018-07-14T01:12:55.392Z,4.00
2018-07-14T01:13:55.379Z,4.00
2018-07-14T01:14:55.362Z,4.00
2018-07-14T01:15:55.348Z,4.00
2018-07-14T01:16:55.343Z,4.00
2018-07-14T01:17:55.321Z,4.00
2018-07-14T01:18:55.306Z,4.00
2018-07-14T01:19:55.289Z,4.00
2018-07-14T01:20:55.286Z,4.00
2018-07-14T01:21:55.264Z,4.00
2018-07-14T01:22:55.253Z,4.00
2018-07-14T01:23:55.236Z,4.00
2018-07-14T01:24:55.228Z,4.00
2018-07-14T01:25:55.206Z,4.00
2018-07-14T01:26:55.190Z,4.00
2018-07-14T01:27:55.175Z,4.00
2018-07-14T01:28:55.161Z,4.00
2018-07-14T01:29:55.151Z,4.00
2018-07-14T01:30:55.133Z,4.00
2018-07-14T01:31:55.124Z,4.00
2018-07-14T01:32:55.126Z,4.00
2018-07-14T01:33:55.090Z,4.00
2018-07-14T01:34:55.076Z,4.00
2018-07-14T01:35:55.060Z,4.00
2018-07-14T01:36:55.060Z,4.00
2018-07-14T01:37:55.038Z,4.00
2018-07-14T01:38:55.018Z,4.00
2018-07-14T01:39:55.001Z,4.00
2018-07-14T01:40:54.988Z,4.00
2018-07-14T01:41:55.040Z,4.00
2018-07-14T01:42:54.959Z,4.00
2018-07-14T01:43:54.943Z,4.00
2018-07-14T01:44:54.932Z,4.00
2018-07-14T01:45:54.923Z,4.00
2018-07-14T01:46:54.902Z,4.00
2018-07-14T01:47:54.885Z,4.00
2018-07-14T01:48:54.871Z,4.00
2018-07-14T01:49:54.857Z,4.00
2018-07-14T01:50:54.842Z,4.00
2018-07-14T01:51:54.827Z,4.00
2018-07-14T01:52:54.812Z,4.00
2018-07-14T01:53:54.798Z,4.00
2018-07-14T01:54:54.783Z,4.00
2018-07-14T01:55:54.767Z,4.00
2018-07-14T01:56:54.760Z,4.00
2018-07-14T01:57:54.742Z,4.00
2018-07-14T01:58:54.725Z,4.00
2018-07-14T01:59:54.711Z,4.00
2018-07-14T02:00:54.702Z,4.00
2018-07-14T02:01:54.681Z,4.00
2018-07-14T02:02:54.669Z,4.00
2018-07-14T02:03:54.651Z,4.00
2018-07-14T02:04:54.637Z,4.00
2018-07-14T02:05:54.624Z,4.00
2018-07-14T02:06:54.617Z,4.00
2018-07-14T02:07:54.592Z,4.00
2018-07-14T02:08:54.576Z,4.00
2018-07-14T02:09:54.564Z,4.00
2018-07-14T02:10:54.548Z,4.00
2018-07-14T02:11:54.534Z,4.00
2018-07-14T02:12:54.519Z,4.00
2018-07-14T02:13:54.548Z,4.00
2018-07-14T02:14:54.490Z,4.00
2018-07-14T02:15:54.473Z,4.00
2018-07-14T02:16:54.459Z,4.00
2018-07-14T02:17:54.448Z,4.00
2018-07-14T02:18:54.432Z,4.00
2018-07-14T02:19:54.415Z,4.00
2018-07-14T02:20:54.408Z,4.00
2018-07-14T02:21:54.440Z,4.00
2018-07-14T02:22:54.370Z,4.00
2018-07-14T02:23:54.359Z,4.00
2018-07-14T02:24:54.340Z,4.00
2018-07-14T02:25:54.326Z,4.00
2018-07-14T02:26:54.316Z,4.00
2018-07-14T02:27:54.296Z,4.00
2018-07-14T02:28:54.290Z,4.00
2018-07-14T02:29:54.266Z,4.00
2018-07-14T02:30:54.253Z,8.00
2018-07-14T02:31:54.236Z,8.00
2018-07-14T02:32:54.223Z,8.00
2018-07-14T02:33:54.207Z,4.00
2018-07-14T02:34:54.197Z,4.00
2018-07-14T02:35:54.179Z,4.00
2018-07-14T02:36:54.163Z,4.00
2018-07-14T02:37:54.149Z,4.00
2018-07-14T02:38:54.140Z,4.00
2018-07-14T02:39:54.125Z,4.00
2018-07-14T02:40:54.111Z,4.00
2018-07-14T02:42:56.701Z,4.00
2018-07-14T02:43:55.272Z,8.00
2018-07-14T02:44:54.043Z,8.00
2018-07-14T02:45:54.028Z,8.00
2018-07-14T02:46:54.015Z,8.00
2018-07-14T02:47:54.000Z,4.00
2018-07-14T02:48:53.984Z,8.00
2018-07-14T02:49:53.968Z,8.00
2018-07-14T02:50:53.955Z,8.00
2018-07-14T02:51:53.937Z,8.00
2018-07-14T02:52:53.923Z,8.00
2018-07-14T02:53:53.905Z,12.00
2018-07-14T02:54:53.896Z,12.00
2018-07-14T02:55:53.878Z,12.00
2018-07-14T02:56:53.863Z,16.00
2018-07-14T02:57:53.849Z,16.00
2018-07-14T02:58:53.842Z,16.00
2018-07-14T02:59:53.933Z,20.00
2018-07-14T03:00:53.800Z,20.00
2018-07-14T03:02:38.160Z,24.00
2018-07-14T03:03:38.155Z,28.00
2018-07-14T03:04:38.534Z,24.00
2018-07-14T03:06:32.304Z,32.00
2018-07-14T03:07:32.288Z,40.00
2018-07-14T03:08:32.274Z,44.00
2018-07-14T03:09:32.260Z,48.00
2018-07-14T03:10:32.254Z,52.00
2018-07-14T03:11:32.229Z,56.00
2018-07-14T03:12:32.210Z,64.00
2018-07-14T03:13:32.197Z,76.00
2018-07-14T03:14:32.182Z,80.00
2018-07-14T03:15:32.166Z,88.00
2018-07-14T03:16:32.149Z,100.00
2018-07-14T03:17:32.137Z,112.00
2018-07-14T03:18:32.120Z,120.00
2018-07-14T03:19:32.221Z,132.00
2018-07-14T03:20:32.090Z,144.00
2018-07-14T03:21:32.076Z,156.00
2018-07-14T03:22:32.061Z,168.00
2018-07-14T03:23:32.054Z,176.00
2018-07-14T03:24:32.037Z,184.00
2018-07-14T03:26:21.609Z,200.00
2018-07-14T03:27:21.583Z,208.00
2018-07-14T03:28:21.565Z,220.00
2018-07-14T03:29:21.550Z,236.00
2018-07-14T03:30:21.535Z,252.00
2018-07-14T03:31:21.521Z,276.00
2018-07-14T03:32:54.714Z,296.00
2018-07-14T03:33:21.509Z,316.00
2018-07-14T03:34:21.476Z,336.00
2018-07-14T03:35:21.460Z,364.00
2018-07-14T03:36:21.449Z,388.00
2018-07-14T03:37:21.427Z,416.00
2018-07-14T03:38:21.414Z,448.00
2018-07-14T03:39:21.398Z,480.00
2018-07-14T03:40:21.383Z,512.00
2018-07-14T03:41:21.376Z,548.00
2018-07-14T03:42:21.354Z,592.00
2018-07-14T03:43:21.385Z,632.00
2018-07-14T03:44:21.322Z,664.00
2018-07-14T03:45:21.309Z,684.00
2018-07-14T03:46:21.293Z,688.00
2018-07-14T03:47:21.277Z,680.00
2018-07-14T03:48:21.266Z,668.00
2018-07-14T03:49:21.264Z,656.00
2018-07-14T03:50:21.232Z,652.00
2018-07-14T03:51:22.228Z,644.00
2018-07-14T03:53:10.082Z,636.00
2018-07-14T03:54:10.069Z,636.00
2018-07-14T03:55:10.053Z,624.00
2018-07-14T03:58:33.189Z,648.00
2018-07-14T04:05:03.344Z,912.00
2018-07-14T04:06:03.326Z,968.00
2018-07-14T04:07:03.328Z,1020.00
2018-07-14T04:08:03.303Z,1096.00
2018-07-14T04:09:03.278Z,1224.00
2018-07-14T04:10:03.263Z,1316.00
2018-07-14T04:11:36.457Z,1388.00
2018-07-14T04:12:03.233Z,1412.00
2018-07-14T04:13:03.216Z,1440.00
2018-07-14T04:14:03.203Z,1520.00
2018-07-14T04:15:03.188Z,1644.00
2018-07-14T04:16:03.172Z,1788.00
2018-07-14T04:17:03.156Z,1908.00
2018-07-14T04:18:03.146Z,2036.00
2018-07-14T04:19:03.128Z,2200.00
2018-07-14T04:20:03.113Z,2296.00
2018-07-14T04:21:03.101Z,2296.00
2018-07-14T04:22:03.080Z,2248.00
2018-07-14T04:23:03.066Z,2220.00
2018-07-14T04:31:55.093Z,3288.00
2018-07-14T04:32:21.795Z,3396.00
2018-07-14T04:33:21.785Z,3504.00
2018-07-14T04:34:21.763Z,3516.00
2018-07-14T04:35:21.747Z,3492.00
2018-07-14T04:36:54.960Z,3536.00
2018-07-14T04:37:21.718Z,3572.00
2018-07-14T04:38:21.704Z,3544.00
2018-07-14T04:39:21.690Z,3504.00
2018-07-14T04:40:21.674Z,3400.00
2018-07-14T04:41:21.658Z,3312.00
2018-07-14T04:54:06.443Z,4928.00
2018-07-14T05:03:07.681Z,5364.00
2018-07-14T05:03:34.462Z,5536.00
2018-07-14T05:09:25.772Z,6448.00
2018-07-14T06:09:29.703Z,33568.00
2018-07-14T06:11:02.907Z,19328.00
2018-07-14T06:11:29.679Z,38848.00
2018-07-14T06:12:29.672Z,42112.00
2018-07-14T06:13:29.659Z,40544.00
2018-07-14T06:14:29.649Z,42464.00
2018-07-14T06:15:29.640Z,37376.00
2018-07-14T06:16:29.633Z,42592.00
2018-07-14T06:17:29.625Z,42624.00
2018-07-14T06:18:29.613Z,43712.00
2018-07-14T06:19:29.705Z,47040.00
2018-07-14T06:20:29.597Z,47104.00
2018-07-14T06:21:29.589Z,43936.00
2018-07-14T06:22:29.582Z,48256.00
2018-07-14T06:23:29.578Z,52000.00
2018-07-14T06:24:29.567Z,50112.00
2018-07-14T06:25:29.565Z,49120.00
2018-07-14T06:26:29.549Z,42496.00
2018-07-14T06:27:29.544Z,43808.00
2018-07-14T06:28:29.537Z,47136.00
2018-07-14T06:29:29.538Z,22080.00
2018-07-14T06:30:29.573Z,29536.00
2018-07-14T06:31:29.518Z,51584.00
2018-07-14T06:32:29.511Z,50048.00
2018-07-14T06:33:29.505Z,34400.00
2018-07-14T06:34:29.500Z,51904.00
2018-07-14T06:35:29.492Z,52800.00
2018-07-14T06:36:29.492Z,49600.00
2018-07-14T06:37:29.484Z,46720.00
2018-07-14T06:38:29.480Z,49088.00
2018-07-14T06:39:29.472Z,49984.00
2018-07-14T06:40:29.461Z,50048.00
2018-07-14T06:41:29.465Z,56832.00
2018-07-14T06:42:29.451Z,61408.00
2018-07-14T06:43:29.447Z,49408.00
2018-07-14T06:44:29.447Z,47520.00
2018-07-14T06:45:29.459Z,52000.00
2018-07-14T06:46:29.433Z,54304.00
2018-07-14T06:47:29.430Z,50912.00
2018-07-14T06:48:29.429Z,46400.00
2018-07-14T06:49:29.427Z,43872.00
2018-07-14T06:50:29.422Z,42016.00
2018-07-14T06:51:29.411Z,44672.00
2018-07-14T06:52:29.407Z,46016.00
2018-07-14T06:53:29.401Z,46592.00
2018-07-14T06:54:29.401Z,48224.00
2018-07-14T06:55:29.393Z,51584.00
2018-07-14T06:56:29.390Z,53792.00
2018-07-14T06:57:29.387Z,50848.00
2018-07-14T06:58:29.388Z,48640.00
2018-07-14T06:59:29.377Z,45024.00
2018-07-14T07:00:29.377Z,41184.00
2018-07-14T07:01:29.379Z,38848.00
2018-07-14T07:02:29.368Z,38656.00
2018-07-14T07:03:29.446Z,40384.00
2018-07-14T07:04:29.362Z,40320.00
2018-07-14T07:05:29.367Z,40000.00
2018-07-14T07:06:29.356Z,38912.00
2018-07-14T07:07:29.354Z,40832.00
2018-07-14T07:08:29.351Z,37664.00
2018-07-14T07:09:29.350Z,46848.00
2018-07-14T07:10:29.354Z,28352.00
2018-07-14T07:11:29.347Z,45280.00
2018-07-14T07:12:29.343Z,31232.00
2018-07-14T07:13:29.344Z,37984.00
2018-07-14T07:14:29.348Z,22848.00
2018-07-14T07:15:29.338Z,25600.00
2018-07-14T07:16:29.333Z,29760.00
2018-07-14T07:17:29.332Z,24416.00
2018-07-14T07:18:29.329Z,42592.00
2018-07-14T07:19:29.328Z,39360.00
2018-07-14T07:20:29.325Z,47744.00
2018-07-14T07:21:29.429Z,39296.00
2018-07-14T07:22:29.380Z,42048.00
2018-07-14T07:23:29.316Z,37792.00
2018-07-14T07:24:29.313Z,47424.00
2018-07-14T07:25:29.312Z,50848.00
2018-07-14T07:26:29.307Z,54048.00
2018-07-14T07:27:29.305Z,56896.00
2018-07-14T07:28:29.303Z,54368.00
2018-07-14T07:29:29.306Z,48448.00
2018-07-14T07:30:29.332Z,60576.00
2018-07-14T07:31:29.297Z,60896.00
2018-07-14T07:32:29.295Z,59232.00
2018-07-14T07:33:29.297Z,37504.00
2018-07-14T07:34:29.315Z,21088.00
2018-07-14T07:35:29.290Z,20864.00
2018-07-14T07:36:29.289Z,34816.00
2018-07-14T07:37:29.286Z,41568.00
2018-07-14T07:38:29.293Z,41952.00
2018-07-14T07:39:29.290Z,33856.00
2018-07-14T07:40:29.296Z,55328.00
2018-07-14T07:41:29.277Z,39168.00
2018-07-14T07:42:29.374Z,35936.00
2018-07-14T07:43:29.270Z,20192.00
2018-07-14T07:44:29.283Z,19744.00
2018-07-14T07:45:29.266Z,19744.00
2018-07-14T07:46:29.259Z,20128.00
2018-07-14T07:47:29.259Z,26368.00
2018-07-14T07:48:29.260Z,22240.00
2018-07-14T07:49:29.252Z,23072.00
2018-07-14T07:50:29.249Z,28192.00
2018-07-14T07:51:29.250Z,30560.00
2018-07-14T07:52:29.242Z,24384.00
2018-07-14T07:53:29.238Z,21568.00
2018-07-14T07:54:29.232Z,19712.00
2018-07-14T07:55:29.232Z,19232.00
2018-07-14T07:56:29.224Z,18976.00
2018-07-14T07:57:29.227Z,19488.00
2018-07-14T07:58:29.213Z,16448.00
2018-07-14T07:59:29.209Z,18484.00
2018-07-14T08:00:29.203Z,18800.00
2018-07-14T08:01:29.199Z,18516.00
2018-07-14T08:02:29.200Z,18716.00
2018-07-14T08:03:29.187Z,19392.00
2018-07-14T08:04:29.185Z,18176.00
2018-07-14T08:05:29.179Z,31008.00
2018-07-14T08:06:29.170Z,29664.00
2018-07-14T08:07:29.163Z,18464.00
2018-07-14T08:08:29.158Z,23392.00
2018-07-14T08:09:29.156Z,25088.00
2018-07-14T08:10:29.160Z,17644.00
2018-07-14T08:11:29.139Z,30528.00
2018-07-14T08:12:29.140Z,19296.00
2018-07-14T08:13:29.125Z,23616.00
2018-07-14T08:14:29.120Z,18656.00
2018-07-14T08:15:29.120Z,21984.00
2018-07-14T08:16:29.106Z,54368.00
2018-07-14T08:17:29.108Z,19008.00
2018-07-14T08:18:29.107Z,24768.00
2018-07-14T08:19:29.116Z,19424.00
2018-07-14T08:20:29.090Z,18064.00
2018-07-14T08:21:29.072Z,17688.00
2018-07-14T08:22:29.067Z,17756.00
2018-07-14T08:23:29.067Z,17900.00
2018-07-14T08:24:29.064Z,18060.00
2018-07-14T08:25:29.061Z,17696.00
2018-07-14T08:26:29.038Z,17452.00
2018-07-14T08:27:29.114Z,18284.00
2018-07-14T08:28:29.024Z,18560.00
2018-07-14T08:29:29.017Z,19456.00
2018-07-14T08:30:29.010Z,19744.00
2018-07-14T08:31:29.002Z,20224.00
2018-07-14T08:32:29.091Z,20352.00
2018-07-14T08:33:28.992Z,20320.00
2018-07-14T08:34:28.981Z,19360.00
2018-07-14T08:35:28.979Z,18876.00
2018-07-14T08:36:28.969Z,19392.00
2018-07-14T08:37:28.959Z,19296.00
2018-07-14T08:38:28.952Z,19680.00
2018-07-14T08:39:28.943Z,20384.00
2018-07-14T08:40:28.944Z,20160.00
2018-07-14T08:41:28.928Z,19904.00
2018-07-14T08:42:28.923Z,19840.00
2018-07-14T08:43:28.911Z,19808.00
2018-07-14T08:44:28.905Z,19904.00
2018-07-14T08:45:28.900Z,20576.00
2018-07-14T08:46:28.896Z,22048.00
2018-07-14T08:47:28.881Z,22752.00
2018-07-14T08:48:28.877Z,23040.00
2018-07-14T08:49:28.868Z,22752.00
2018-07-14T08:50:28.864Z,21632.00
2018-07-14T08:51:28.915Z,21280.00
2018-07-14T08:52:28.852Z,21536.00
2018-07-14T08:53:28.844Z,23520.00
2018-07-14T08:54:28.834Z,24160.00
2018-07-14T08:55:28.826Z,24704.00
2018-07-14T08:56:28.827Z,26656.00
2018-07-14T08:57:28.806Z,25312.00
2018-07-14T08:58:28.803Z,23456.00
2018-07-14T08:59:28.806Z,26368.00
2018-07-14T09:00:28.784Z,24096.00
2018-07-14T09:01:28.782Z,23936.00
2018-07-14T09:02:28.765Z,23136.00
2018-07-14T09:03:28.766Z,28000.00
2018-07-14T09:04:28.750Z,27520.00
2018-07-14T09:05:28.752Z,71040.00
2018-07-14T09:06:28.747Z,23488.00
2018-07-14T09:07:28.728Z,71136.00
2018-07-14T09:08:28.720Z,52320.00
2018-07-14T09:09:28.716Z,24096.00
2018-07-14T09:10:28.713Z,85632.00
2018-07-14T09:11:28.707Z,43520.00
2018-07-14T09:12:28.692Z,25792.00
2018-07-14T09:13:28.688Z,25024.00
2018-07-14T09:14:28.696Z,27680.00
2018-07-14T09:15:28.678Z,24864.00
2018-07-14T09:16:28.719Z,25152.00
2018-07-14T09:17:28.664Z,25568.00
2018-07-14T09:18:28.654Z,51392.00
2018-07-14T09:19:28.651Z,24096.00
2018-07-14T09:20:28.654Z,33824.00
2018-07-14T09:21:28.639Z,24064.00
2018-07-14T09:22:28.633Z,24768.00
2018-07-14T09:23:28.627Z,90496.00
2018-07-14T09:24:28.632Z,89728.00
2018-07-14T09:25:28.615Z,23904.00
2018-07-14T09:26:28.609Z,103712.00
2018-07-14T09:27:28.606Z,23520.00
2018-07-14T09:28:28.611Z,23744.00
2018-07-14T09:29:28.595Z,23616.00
2018-07-14T09:30:28.598Z,56928.00
2018-07-14T09:31:28.605Z,21312.00
2018-07-14T09:32:28.605Z,21472.00
2018-07-14T09:33:28.582Z,23936.00
2018-07-14T09:34:28.584Z,26624.00
2018-07-14T09:35:28.579Z,23840.00
2018-07-14T09:36:28.559Z,22400.00
2018-07-14T09:37:28.563Z,47552.00
2018-07-14T09:38:28.548Z,27456.00
2018-07-14T09:39:28.553Z,35104.00
2018-07-14T09:40:28.540Z,75040.00
2018-07-14T09:41:28.550Z,24384.00
2018-07-14T09:42:28.529Z,24128.00
2018-07-14T09:43:28.523Z,22528.00
2018-07-14T09:44:28.574Z,22368.00
2018-07-14T09:45:28.527Z,77952.00
2018-07-14T09:46:28.660Z,41664.00
2018-07-14T09:47:28.507Z,80992.00
2018-07-14T09:48:28.512Z,79232.00
2018-07-14T09:49:28.501Z,68768.00
2018-07-14T09:50:28.492Z,33888.00
2018-07-14T09:51:28.497Z,21504.00
2018-07-14T09:52:28.506Z,23232.00
2018-07-14T09:53:28.483Z,78304.00
2018-07-14T09:54:28.477Z,22464.00
2018-07-14T09:55:28.475Z,24160.00
2018-07-14T09:56:28.470Z,67040.00
2018-07-14T09:57:28.496Z,24192.00
2018-07-14T09:58:28.470Z,34688.00
2018-07-14T09:59:28.472Z,26464.00
2018-07-14T10:00:28.462Z,23616.00
2018-07-14T10:01:28.449Z,25728.00
2018-07-14T10:02:28.454Z,41152.00
2018-07-14T10:03:28.514Z,79744.00
2018-07-14T10:04:28.446Z,106080.00
2018-07-14T10:05:28.445Z,80704.00
2018-07-14T10:06:28.430Z,78400.00
2018-07-14T10:07:28.427Z,55552.00
2018-07-14T10:08:28.424Z,89408.00
2018-07-14T10:09:28.424Z,90464.00
2018-07-14T10:10:28.421Z,90464.00
2018-07-14T10:11:28.434Z,96480.00
2018-07-14T10:12:28.410Z,96224.00
2018-07-14T10:13:28.410Z,54624.00
2018-07-14T10:14:28.421Z,100224.00
2018-07-14T10:15:28.405Z,53760.00
2018-07-14T10:16:28.405Z,88672.00
2018-07-14T10:17:28.426Z,76608.00
2018-07-14T10:18:28.405Z,64032.00
2018-07-14T10:19:28.412Z,53024.00
2018-07-14T10:20:28.404Z,38784.00
2018-07-14T10:21:28.406Z,51648.00
2018-07-14T10:22:28.404Z,35104.00
2018-07-14T10:23:28.404Z,50336.00
2018-07-14T10:24:28.418Z,33184.00
2018-07-14T10:25:28.461Z,28032.00
2018-07-14T10:26:28.410Z,33792.00
2018-07-14T10:27:28.405Z,39424.00
2018-07-14T10:28:28.407Z,87488.00
2018-07-14T10:29:28.468Z,91136.00
2018-07-14T10:30:28.409Z,91104.00
2018-07-14T10:31:28.404Z,60320.00
2018-07-14T10:32:28.406Z,36800.00
2018-07-14T10:33:28.425Z,39040.00
2018-07-14T10:34:28.402Z,28768.00
2018-07-14T10:35:28.407Z,37184.00
2018-07-14T10:36:28.400Z,33952.00
2018-07-14T10:37:28.400Z,60288.00
2018-07-14T10:38:28.407Z,56640.00
2018-07-14T10:39:28.400Z,58016.00
2018-07-14T10:40:28.401Z,34400.00
2018-07-14T10:41:28.395Z,86368.00
2018-07-14T10:42:28.474Z,50304.00
2018-07-14T10:43:28.400Z,34496.00
2018-07-14T10:44:28.393Z,40608.00
2018-07-14T10:45:28.397Z,87456.00
2018-07-14T10:46:28.414Z,87680.00
2018-07-14T10:47:28.404Z,83392.00
2018-07-14T10:48:28.392Z,75712.00
2018-07-14T10:49:28.390Z,70400.00
2018-07-14T10:50:28.387Z,83200.00
2018-07-14T10:51:28.454Z,72128.00
2018-07-14T10:52:28.387Z,75520.00
2018-07-14T10:53:28.390Z,78752.00
2018-07-14T10:54:28.390Z,84544.00
2018-07-14T10:55:28.391Z,89952.00
2018-07-14T10:56:28.392Z,95072.00
2018-07-14T10:57:28.393Z,94080.00
2018-07-14T10:58:28.397Z,96896.00
2018-07-14T10:59:28.397Z,98176.00
2018-07-14T11:00:28.396Z,95776.00
2018-07-14T11:01:28.404Z,91968.00
2018-07-14T11:02:28.402Z,89728.00
2018-07-14T11:03:28.406Z,92288.00
2018-07-14T11:04:28.437Z,86080.00
2018-07-14T11:05:28.409Z,86336.00
2018-07-14T11:06:28.420Z,86528.00
2018-07-14T11:07:28.413Z,85056.00
2018-07-14T11:08:28.417Z,83456.00
2018-07-14T11:09:28.420Z,87040.00
2018-07-14T11:10:28.440Z,91072.00
2018-07-14T11:11:28.426Z,93792.00
2018-07-14T11:12:28.453Z,99968.00
2018-07-14T11:13:28.461Z,104864.00
2018-07-14T11:14:28.439Z,102880.00
2018-07-14T11:15:28.445Z,99040.00
2018-07-14T11:16:28.446Z,103296.00
2018-07-14T11:17:28.453Z,105728.00
2018-07-14T11:18:28.456Z,101984.00
2018-07-14T11:19:28.469Z,94656.00
2018-07-14T11:20:28.474Z,90880.00
2018-07-14T11:21:28.472Z,94752.00
2018-07-14T11:22:28.477Z,96448.00
2018-07-14T11:23:28.483Z,100512.00
2018-07-14T11:24:28.491Z,103584.00
2018-07-14T11:25:28.493Z,103136.00
2018-07-14T11:26:28.496Z,98560.00
2018-07-14T11:27:28.503Z,90592.00
2018-07-14T11:28:28.520Z,86144.00
2018-07-14T11:29:28.514Z,74368.00
2018-07-14T11:30:28.535Z,25120.00
2018-07-14T11:31:28.523Z,21088.00
2018-07-14T11:32:28.536Z,90560.00
2018-07-14T11:33:28.543Z,75840.00
2018-07-14T11:34:28.649Z,91904.00
2018-07-14T11:35:28.542Z,28704.00
2018-07-14T11:36:28.550Z,82592.00
2018-07-14T11:37:28.551Z,80384.00
2018-07-14T11:38:28.562Z,78464.00
2018-07-14T11:39:28.568Z,70240.00
2018-07-14T11:40:28.561Z,23552.00
2018-07-14T11:41:28.563Z,35136.00
2018-07-14T11:42:28.566Z,89888.00
2018-07-14T11:43:28.570Z,87456.00
2018-07-14T11:44:28.584Z,91872.00
2018-07-14T11:45:28.574Z,94112.00
2018-07-14T11:46:28.583Z,95200.00
2018-07-14T11:47:28.598Z,88512.00
2018-07-14T11:48:28.582Z,82976.00
2018-07-14T11:49:28.592Z,81728.00
2018-07-14T11:50:28.584Z,78688.00
2018-07-14T11:51:28.595Z,61120.00
2018-07-14T11:52:28.590Z,35104.00
2018-07-14T11:53:28.608Z,17656.00
2018-07-14T11:54:28.598Z,15120.00
2018-07-14T11:55:28.596Z,16300.00
2018-07-14T11:56:28.597Z,14768.00
2018-07-14T11:57:28.601Z,13768.00
2018-07-14T11:58:28.596Z,13876.00
2018-07-14T11:59:28.596Z,14732.00
2018-07-14T12:00:28.596Z,15060.00
2018-07-14T12:01:28.704Z,13104.00
2018-07-14T12:02:28.599Z,12312.00
2018-07-14T12:03:28.597Z,12200.00
2018-07-14T12:04:28.602Z,12596.00
2018-07-14T12:05:28.606Z,11480.00
2018-07-14T12:06:28.592Z,13140.00
2018-07-14T12:07:28.596Z,13668.00
2018-07-14T12:08:28.596Z,12976.00
2018-07-14T12:09:28.587Z,11600.00
2018-07-14T12:10:28.587Z,12732.00
2018-07-14T12:11:28.582Z,14480.00
2018-07-14T12:12:28.584Z,18048.00
2018-07-14T12:13:28.638Z,19072.00
2018-07-14T12:14:28.573Z,18560.00
2018-07-14T12:15:28.568Z,17216.00
2018-07-14T12:16:28.567Z,14456.00
2018-07-14T12:17:28.564Z,13628.00
2018-07-14T12:18:28.561Z,12784.00
2018-07-14T12:19:28.556Z,10792.00
2018-07-14T12:20:28.553Z,10436.00
2018-07-14T12:21:28.550Z,10552.00
2018-07-14T12:22:28.553Z,12592.00
2018-07-14T12:23:28.546Z,14300.00
2018-07-14T12:24:28.538Z,14912.00
2018-07-14T12:25:28.532Z,14300.00
2018-07-14T12:26:28.533Z,13752.00
2018-07-14T12:27:28.528Z,13280.00
2018-07-14T12:28:28.536Z,11996.00
2018-07-14T12:29:28.521Z,10616.00
2018-07-14T12:30:28.533Z,9500.00
2018-07-14T12:31:28.501Z,8656.00
2018-07-14T12:32:28.504Z,8180.00
2018-07-14T12:33:28.500Z,7916.00
2018-07-14T12:34:28.485Z,7840.00
2018-07-14T12:36:12.512Z,7664.00
2018-07-14T12:37:12.505Z,7952.00
2018-07-14T12:38:12.499Z,7984.00
2018-07-14T12:39:12.496Z,7920.00
2018-07-14T12:40:12.488Z,8500.00
2018-07-14T12:41:12.486Z,9472.00
2018-07-14T12:42:12.495Z,10564.00
2018-07-14T12:43:12.477Z,11368.00
2018-07-14T12:44:12.467Z,9936.00
2018-07-14T12:45:12.456Z,9236.00
2018-07-14T12:46:12.459Z,9492.00
2018-07-14T12:47:12.451Z,9576.00
2018-07-14T12:48:12.488Z,9020.00
2018-07-14T12:49:12.446Z,8028.00
2018-07-14T12:50:12.433Z,8024.00
2018-07-14T12:51:12.431Z,8132.00
2018-07-14T12:52:58.915Z,8692.00
2018-07-14T12:53:58.881Z,8376.00
2018-07-14T12:54:58.877Z,8664.00
2018-07-14T12:55:58.871Z,8660.00
2018-07-14T12:56:58.866Z,9100.00
2018-07-14T12:57:58.855Z,8812.00
2018-07-14T12:59:01.469Z,7808.00
2018-07-14T12:59:58.893Z,6812.00
2018-07-14T13:00:58.846Z,7116.00
2018-07-14T13:01:58.838Z,7280.00
2018-07-14T13:02:58.921Z,6964.00
2018-07-14T13:03:58.823Z,6580.00
2018-07-14T13:04:58.824Z,6936.00
2018-07-14T13:05:58.800Z,7624.00
2018-07-14T13:06:58.797Z,8008.00
2018-07-14T13:07:58.782Z,7240.00
2018-07-14T13:08:58.778Z,6660.00
2018-07-14T13:09:58.772Z,6540.00
2018-07-14T13:10:58.760Z,6884.00
2018-07-14T13:11:58.757Z,7068.00
2018-07-14T13:12:58.758Z,7016.00
2018-07-14T13:13:58.743Z,7124.00
2018-07-14T13:14:58.749Z,7036.00
2018-07-14T13:15:58.844Z,6480.00
2018-07-14T13:16:58.725Z,6764.00
2018-07-14T13:17:58.714Z,8324.00
2018-07-14T13:18:58.756Z,9096.00
2018-07-14T13:19:58.707Z,8964.00
2018-07-14T13:20:58.701Z,9188.00
2018-07-14T13:21:58.689Z,9076.00
2018-07-14T13:22:58.676Z,10060.00
2018-07-14T13:23:58.667Z,11088.00
2018-07-14T13:24:58.660Z,10812.00
2018-07-14T13:25:58.663Z,10328.00
2018-07-14T13:26:58.645Z,9120.00
2018-07-14T13:27:58.638Z,8696.00
2018-07-14T13:28:58.660Z,8592.00
2018-07-14T13:29:58.626Z,8008.00
2018-07-14T13:30:58.634Z,7852.00
2018-07-14T13:31:58.618Z,8080.00
2018-07-14T13:32:58.600Z,7992.00
2018-07-14T13:33:58.592Z,7516.00
2018-07-14T13:34:58.586Z,6908.00
2018-07-14T13:35:58.576Z,6508.00
2018-07-14T13:36:58.568Z,5888.00
2018-07-14T13:37:58.573Z,6048.00
2018-07-14T13:38:58.567Z,6004.00
2018-07-14T13:39:58.546Z,6128.00
2018-07-14T13:40:58.539Z,6168.00
2018-07-14T13:41:58.534Z,6284.00
2018-07-14T13:42:58.520Z,6200.00
2018-07-14T13:43:58.512Z,6368.00
2018-07-14T13:44:58.509Z,6820.00
2018-07-14T13:45:58.500Z,7288.00
2018-07-14T13:46:58.488Z,7084.00
2018-07-14T13:47:58.480Z,6816.00
2018-07-14T13:48:58.497Z,6896.00
2018-07-14T13:49:58.482Z,7416.00
2018-07-14T13:50:58.458Z,7688.00
2018-07-14T13:51:58.448Z,7380.00
2018-07-14T13:52:58.492Z,6476.00
2018-07-14T13:53:58.456Z,5812.00
2018-07-14T13:54:58.445Z,6108.00
2018-07-14T13:55:58.415Z,6720.00